Time;durP1;ratioP1;P1;durP2;ratioP2;P2;SDS_P1;SDS_P2;PMS_P1;PMS_P2;Temp;Humidity;BMP_temperature;BMP_pressure;BME280_temperature;BME280_humidity;BME280_pressure;Samples;Min_cycle;Max_cycle;Signal;HPM_P1;HPM_P2
2022/01/20 00:00:18;;;;;;;17.50;6.50;;;-3.00;99.90;;;;;;5016093;28;20233;-56
2022/01/20 00:02:46;;;;;;;14.63;7.30;;;-2.90;99.90;;;;;;5015975;28;20546;-52
2022/01/20 00:08:01;;;;;;;22.63;7.03;;;-2.90;99.90;;;;;;5016011;28;20672;-54
2022/01/20 00:26:54;;;;;;;17.37;7.07;;;-3.20;99.90;;;;;;5015670;28;20187;-53
2022/01/20 00:29:30;;;;;;;15.47;7.00;;;-3.30;99.90;;;;;;4998443;28;20194;-51
2022/01/20 00:32:09;;;;;;;17.87;6.83;;;-3.30;99.90;;;;;;5015453;28;20547;-55
2022/01/20 00:37:21;;;;;;;18.20;8.00;;;-3.20;99.90;;;;;;5014786;28;20189;-50
2022/01/20 00:39:47;;;;;;;16.37;7.43;;;-3.20;99.90;;;;;;4997893;28;20308;-50
2022/01/20 00:42:15;;;;;;;21.80;8.77;;;-3.20;99.90;;;;;;5014883;28;20197;-55
2022/01/20 00:44:42;;;;;;;22.90;9.87;;;-3.20;99.90;;;;;;5015183;28;20178;-52
2022/01/20 00:47:07;;;;;;;22.57;8.90;;;-3.20;99.90;;;;;;5014928;28;20188;-49
2022/01/20 00:49:33;;;;;;;19.20;6.97;;;-3.10;99.90;;;;;;5015108;28;20190;-53
2022/01/20 00:52:00;;;;;;;20.50;8.17;;;-3.00;99.90;;;;;;5014206;28;20197;-52
2022/01/20 00:54:26;;;;;;;18.30;8.17;;;-3.00;99.90;;;;;;5015266;28;20230;-54
2022/01/20 00:56:52;;;;;;;17.13;8.43;;;-3.00;99.90;;;;;;5014872;28;20517;-52
2022/01/20 00:59:17;;;;;;;16.37;8.00;;;-3.10;99.90;;;;;;4997289;28;20221;-50
2022/01/20 01:01:44;;;;;;;16.73;8.20;;;-3.10;99.90;;;;;;5014789;28;20182;-59
2022/01/20 01:04:10;;;;;;;20.50;8.33;;;-3.10;99.90;;;;;;5013887;28;20180;-50
2022/01/20 01:06:55;;;;;;;17.00;7.33;;;-3.10;99.90;;;;;;5014411;28;20191;-50
2022/01/20 01:09:22;;;;;;;17.37;7.63;;;-3.20;99.90;;;;;;5014555;28;20656;-51
2022/01/20 01:11:49;;;;;;;15.80;7.83;;;-3.20;99.90;;;;;;5014624;28;20277;-50
2022/01/20 01:14:17;;;;;;;21.27;8.07;;;-3.30;99.90;;;;;;5014233;28;20190;-50
2022/01/20 01:22:30;;;;;;;18.67;7.90;;;-3.40;99.90;;;;;;5014463;28;20254;-50
2022/01/20 01:24:51;;;;;;;25.67;9.10;;;-3.30;99.90;;;;;;5011235;28;20190;-49
2022/01/20 01:27:17;;;;;;;16.23;7.80;;;-3.20;99.90;;;;;;5014085;28;20181;-52
2022/01/20 01:30:05;;;;;;;20.07;9.07;;;-3.20;99.90;;;;;;5014655;28;20198;-52
2022/01/20 01:32:49;;;;;;;18.97;7.33;;;-3.20;99.90;;;;;;5014416;28;20280;-52
2022/01/20 01:35:17;;;;;;;19.23;7.17;;;-3.30;99.90;;;;;;5014023;28;20251;-53
2022/01/20 01:40:25;;;;;;;16.53;7.77;;;-3.10;99.90;;;;;;5013983;28;20247;-50
2022/01/20 01:42:53;;;;;;;11.50;5.87;;;-3.10;99.90;;;;;;5014339;28;20185;-51
2022/01/20 01:45:26;;;;;;;11.80;4.97;;;-3.10;99.90;;;;;;5013904;28;20180;-50
2022/01/20 01:47:52;;;;;;;12.60;5.40;;;-3.10;99.90;;;;;;5014013;28;20185;-49
2022/01/20 01:50:18;;;;;;;13.80;5.77;;;-3.00;99.90;;;;;;5013664;28;20193;-53
2022/01/20 01:52:44;;;;;;;14.73;4.87;;;-2.90;99.90;;;;;;5013557;28;20190;-51
2022/01/20 01:55:10;;;;;;;17.27;6.37;;;-2.80;99.90;;;;;;5013837;28;20693;-54
2022/01/20 01:57:36;;;;;;;13.00;5.30;;;-2.80;99.90;;;;;;4996340;28;20634;-51
2022/01/20 02:00:07;;;;;;;13.30;5.73;;;-2.80;99.90;;;;;;5013698;28;20220;-61
2022/01/20 02:02:32;;;;;;;12.17;5.53;;;-2.80;99.90;;;;;;5013875;28;20193;-53
2022/01/20 02:04:58;;;;;;;13.90;5.63;;;-2.80;99.90;;;;;;5013546;28;20194;-51
2022/01/20 02:20:43;;;;;;;11.67;4.17;;;-2.70;99.90;;;;;;5013790;28;20243;-52
2022/01/20 02:23:09;;;;;;;9.73;4.37;;;-2.60;99.90;;;;;;5012738;28;20194;-52
2022/01/20 02:25:36;;;;;;;12.63;4.57;;;-2.40;99.90;;;;;;4995586;28;20657;-53
2022/01/20 02:28:08;;;;;;;15.67;5.33;;;-2.30;99.90;;;;;;4995493;28;20233;-52
2022/01/20 02:30:35;;;;;;;10.00;3.93;;;-2.20;99.90;;;;;;5013229;28;20189;-50
2022/01/20 02:33:05;;;;;;;12.83;4.10;;;-2.10;99.90;;;;;;4995958;28;20270;-55
2022/01/20 02:35:37;;;;;;;9.77;3.90;;;-2.00;99.90;;;;;;5013301;28;20209;-55
2022/01/20 02:38:12;;;;;;;7.47;3.10;;;-2.00;99.90;;;;;;5012974;28;20188;-61
2022/01/20 02:45:51;;;;;;;22.10;4.80;;;-1.90;99.90;;;;;;5013018;28;20185;-52
2022/01/20 02:48:17;;;;;;;11.40;4.37;;;-1.80;99.90;;;;;;5012570;28;20190;-54
2022/01/20 02:50:43;;;;;;;12.60;4.40;;;-1.80;99.90;;;;;;5012741;28;20631;-51
2022/01/20 02:53:09;;;;;;;11.90;3.70;;;-1.80;99.90;;;;;;4994689;28;20231;-52
2022/01/20 02:55:35;;;;;;;9.47;3.00;;;-1.70;99.90;;;;;;5012964;28;20241;-52
2022/01/20 02:58:01;;;;;;;8.07;3.77;;;-1.60;99.90;;;;;;5012736;28;20589;-54
2022/01/20 03:00:27;;;;;;;11.80;3.77;;;-1.60;99.90;;;;;;5012118;28;20188;-54
2022/01/20 03:02:55;;;;;;;12.27;3.50;;;-1.50;99.90;;;;;;5012279;28;20194;-53
2022/01/20 03:05:21;;;;;;;12.50;3.50;;;-1.40;99.90;;;;;;5012237;28;20175;-52
2022/01/20 03:07:46;;;;;;;15.17;4.97;;;-1.30;99.90;;;;;;4995433;28;20187;-53
2022/01/20 03:10:12;;;;;;;13.33;3.97;;;-1.10;99.90;;;;;;5012414;28;20187;-55
2022/01/20 03:12:38;;;;;;;8.63;2.80;;;-0.90;99.90;;;;;;4994921;28;20690;-55
2022/01/20 03:15:04;;;;;;;8.30;2.60;;;-0.90;99.90;;;;;;5012165;28;20270;-56
2022/01/20 03:17:32;;;;;;;25.20;4.43;;;-0.80;99.90;;;;;;5012429;28;20689;-53
2022/01/20 03:19:58;;;;;;;15.73;3.57;;;-0.70;99.90;;;;;;5011842;28;20219;-53
2022/01/20 03:22:24;;;;;;;8.43;2.93;;;-0.80;99.90;;;;;;5012177;28;20537;-54
2022/01/20 03:24:50;;;;;;;13.03;2.80;;;-0.80;99.90;;;;;;5012290;28;20184;-52
2022/01/20 03:27:16;;;;;;;10.60;3.13;;;-0.90;99.90;;;;;;5011829;28;20203;-53
2022/01/20 03:29:41;;;;;;;6.07;2.40;;;-1.00;99.90;;;;;;5012203;28;20552;-52
2022/01/20 03:32:07;;;;;;;6.43;2.60;;;-0.90;99.90;;;;;;5011791;28;20188;-49
2022/01/20 03:34:33;;;;;;;9.57;3.13;;;-0.80;99.90;;;;;;5012143;28;20176;-53
2022/01/20 03:37:03;;;;;;;12.77;3.00;;;-0.70;99.90;;;;;;4994583;28;20693;-50
2022/01/20 03:39:30;;;;;;;14.20;2.50;;;-0.70;99.90;;;;;;5012045;28;20252;-52
2022/01/20 03:41:55;;;;;;;8.37;2.80;;;-0.60;99.90;;;;;;5012199;28;20202;-50
2022/01/20 03:44:21;;;;;;;10.40;3.30;;;-0.50;99.90;;;;;;4994291;28;20183;-51
2022/01/20 03:46:47;;;;;;;6.93;2.97;;;-0.50;99.90;;;;;;5012127;28;20270;-53
2022/01/20 03:49:27;;;;;;;5.27;2.80;;;-0.60;99.90;;;;;;5011435;28;20207;-54
2022/01/20 03:51:54;;;;;;;10.23;3.80;;;-0.70;99.90;;;;;;5012075;28;20187;-51
2022/01/20 03:54:19;;;;;;;9.17;2.77;;;-0.70;99.90;;;;;;5011532;28;20247;-53
2022/01/20 03:56:45;;;;;;;11.20;3.20;;;-0.70;99.90;;;;;;5012004;28;20199;-53
2022/01/20 03:59:11;;;;;;;7.73;2.77;;;-0.70;99.90;;;;;;5011478;28;20211;-52
2022/01/20 04:01:37;;;;;;;7.27;3.57;;;-0.80;99.90;;;;;;5011839;28;20262;-54
2022/01/20 04:04:03;;;;;;;8.47;3.03;;;-0.80;99.90;;;;;;4994449;28;20249;-63
2022/01/20 04:06:28;;;;;;;15.13;3.97;;;-0.60;99.90;;;;;;5012084;28;20269;-53
2022/01/20 04:08:54;;;;;;;10.43;3.00;;;-0.40;99.90;;;;;;5011822;28;20191;-53
2022/01/20 04:11:23;;;;;;;19.23;3.33;;;-0.50;99.90;;;;;;5011359;28;20214;-54
2022/01/20 04:13:50;;;;;;;12.07;2.37;;;-0.50;99.90;;;;;;5011742;28;20274;-54
2022/01/20 04:16:20;;;;;;;8.17;2.67;;;-0.60;99.90;;;;;;4993742;28;20550;-53
2022/01/20 04:18:56;;;;;;;21.37;3.60;;;-0.60;99.90;;;;;;5011833;28;20298;-54
2022/01/20 04:21:31;;;;;;;12.17;3.70;;;-0.40;99.90;;;;;;4993568;28;20211;-51
2022/01/20 04:23:59;;;;;;;5.87;2.63;;;-0.40;99.90;;;;;;5011606;28;20218;-53
2022/01/20 04:26:26;;;;;;;6.87;2.87;;;-0.40;99.90;;;;;;5010929;28;20656;-53
2022/01/20 04:28:56;;;;;;;21.77;4.17;;;-0.50;99.90;;;;;;5011331;28;20239;-54
2022/01/20 04:31:24;;;;;;;11.00;2.97;;;-0.40;99.90;;;;;;5011206;28;20192;-53
2022/01/20 04:33:50;;;;;;;7.30;2.50;;;-0.20;99.90;;;;;;5011618;28;20195;-52
2022/01/20 04:36:17;;;;;;;4.30;2.10;;;-0.10;99.60;;;;;;5011393;28;20276;-56
2022/01/20 04:38:43;;;;;;;6.50;2.73;;;0.30;99.10;;;;;;5013838;28;20216;-51
2022/01/20 04:41:09;;;;;;;8.33;2.87;;;0.40;98.80;;;;;;5014371;28;20184;-51
2022/01/20 04:43:35;;;;;;;8.70;2.87;;;0.20;99.40;;;;;;5015173;28;20258;-53
2022/01/20 04:46:12;;;;;;;13.13;3.40;;;0.00;99.70;;;;;;5015198;28;20222;-55
2022/01/20 04:59:25;;;;;;;12.23;3.87;;;-0.10;99.90;;;;;;5014172;28;20225;-56
2022/01/20 05:01:51;;;;;;;7.17;3.43;;;-0.30;99.90;;;;;;4996806;28;20176;-55
2022/01/20 05:04:16;;;;;;;13.67;2.80;;;-0.40;99.90;;;;;;5014355;28;20242;-54
2022/01/20 05:06:44;;;;;;;5.77;2.97;;;-0.50;99.90;;;;;;5014387;28;20188;-57
2022/01/20 05:09:17;;;;;;;12.83;3.33;;;-0.60;99.90;;;;;;5014102;28;20183;-53
2022/01/20 05:11:47;;;;;;;13.40;4.27;;;-0.70;99.90;;;;;;5014137;28;20302;-54
2022/01/20 05:14:12;;;;;;;24.53;4.30;;;-0.80;99.90;;;;;;5013715;28;20233;-56
2022/01/20 05:16:38;;;;;;;12.27;3.53;;;-0.80;99.90;;;;;;5014255;28;20188;-51
2022/01/20 05:19:04;;;;;;;9.73;3.90;;;-0.80;99.90;;;;;;5013875;28;20265;-56
2022/01/20 05:21:30;;;;;;;10.43;3.50;;;-0.80;99.90;;;;;;5014587;28;20285;-52
2022/01/20 05:23:56;;;;;;;16.00;3.10;;;-0.70;99.90;;;;;;5014331;28;20250;-51
2022/01/20 05:26:21;;;;;;;20.53;3.60;;;-0.60;99.90;;;;;;5013157;28;20271;-59
2022/01/20 05:28:47;;;;;;;9.30;3.23;;;-0.50;99.90;;;;;;5013613;28;20550;-54
2022/01/20 05:31:13;;;;;;;25.50;4.37;;;-0.50;99.90;;;;;;5013246;28;20230;-53
2022/01/20 05:33:38;;;;;;;24.33;4.23;;;-0.50;99.90;;;;;;5013693;28;20543;-54
2022/01/20 05:36:04;;;;;;;8.00;2.87;;;-0.60;99.90;;;;;;4995681;28;20261;-55
2022/01/20 05:38:30;;;;;;;19.67;4.27;;;-0.60;99.90;;;;;;5013508;28;20211;-50
2022/01/20 05:40:56;;;;;;;17.23;3.90;;;-0.60;99.90;;;;;;5013212;28;20584;-54
2022/01/20 05:43:21;;;;;;;11.40;4.17;;;-0.60;99.90;;;;;;4995371;28;20184;-53
2022/01/20 05:45:47;;;;;;;12.77;4.17;;;-0.60;99.90;;;;;;5012985;28;20212;-54
2022/01/20 05:48:16;;;;;;;11.73;4.27;;;-0.60;99.90;;;;;;5013234;28;20202;-53
2022/01/20 05:50:43;;;;;;;11.07;4.27;;;-0.60;99.90;;;;;;5013339;28;20187;-55
2022/01/20 05:53:10;;;;;;;26.17;5.40;;;-0.60;99.90;;;;;;5012377;28;20232;-54
2022/01/20 05:55:36;;;;;;;11.23;3.73;;;-0.60;99.90;;;;;;5013049;28;20179;-55
2022/01/20 05:58:07;;;;;;;11.80;4.00;;;-0.50;99.90;;;;;;4994283;28;20584;-56
2022/01/20 06:00:35;;;;;;;23.13;6.37;;;-0.40;99.90;;;;;;5012840;28;20191;-53
2022/01/20 06:05:45;;;;;;;21.50;6.23;;;-0.40;99.90;;;;;;5012823;28;20696;-57
2022/01/20 06:08:11;;;;;;;15.07;4.10;;;-0.40;99.90;;;;;;5012559;28;20232;-55
2022/01/20 06:10:37;;;;;;;11.73;3.90;;;-0.30;99.90;;;;;;4995117;28;20187;-52
2022/01/20 06:13:04;;;;;;;15.27;4.37;;;-0.30;99.90;;;;;;4994531;28;20186;-64
2022/01/20 06:15:30;;;;;;;11.63;4.03;;;-0.10;99.90;;;;;;4993166;28;20307;-58
2022/01/20 06:17:56;;;;;;;12.27;3.97;;;-0.10;99.90;;;;;;4992978;28;20360;-52
2022/01/20 06:20:22;;;;;;;18.50;4.50;;;0.00;99.90;;;;;;4992585;28;20220;-56
2022/01/20 06:22:48;;;;;;;24.50;4.60;;;0.00;99.90;;;;;;4993591;28;20184;-59
2022/01/20 06:25:14;;;;;;;14.10;4.23;;;0.00;99.90;;;;;;4992729;28;20259;-61
2022/01/20 06:27:40;;;;;;;6.57;3.80;;;0.10;99.90;;;;;;4992476;28;20195;-60
2022/01/20 06:30:07;;;;;;;11.10;4.37;;;0.30;99.90;;;;;;4975001;28;20201;-62
2022/01/20 06:32:34;;;;;;;23.83;5.83;;;0.30;99.90;;;;;;4992922;28;20248;-59
2022/01/20 06:35:00;;;;;;;12.50;4.60;;;0.40;99.90;;;;;;4992855;28;20497;-61
2022/01/20 06:37:26;;;;;;;13.67;4.00;;;0.50;99.90;;;;;;4989606;28;20190;-58
2022/01/20 06:39:51;;;;;;;13.90;4.23;;;0.50;99.90;;;;;;5001582;28;20286;-61
2022/01/20 06:42:17;;;;;;;8.60;3.87;;;0.60;99.90;;;;;;4999618;28;20596;-58
2022/01/20 06:44:44;;;;;;;12.00;4.57;;;0.70;99.90;;;;;;4967528;28;20555;-57
2022/01/20 06:47:10;;;;;;;8.00;4.20;;;0.70;99.90;;;;;;4982737;28;20221;-61
2022/01/20 06:49:36;;;;;;;10.87;4.17;;;0.70;99.90;;;;;;5000357;28;20236;-58
2022/01/20 06:52:03;;;;;;;14.70;4.07;;;0.80;99.90;;;;;;5001233;28;20200;-60
2022/01/20 06:54:29;;;;;;;13.23;4.77;;;0.80;99.90;;;;;;5000492;28;20282;-62
2022/01/20 06:56:54;;;;;;;12.53;4.40;;;0.80;99.90;;;;;;4983930;28;20189;-62
2022/01/20 06:59:21;;;;;;;18.33;5.73;;;0.80;99.90;;;;;;5000782;28;20219;-59
2022/01/20 07:01:48;;;;;;;13.47;5.07;;;0.90;99.90;;;;;;4999707;28;20748;-63
2022/01/20 07:04:15;;;;;;;11.87;4.13;;;1.00;99.90;;;;;;5001107;28;20218;-63
2022/01/20 07:06:41;;;;;;;16.80;4.57;;;1.10;99.90;;;;;;5000394;28;20255;-61
2022/01/20 07:09:08;;;;;;;8.03;3.43;;;1.20;99.90;;;;;;4999934;28;20186;-61
2022/01/20 07:11:35;;;;;;;11.23;3.77;;;1.30;99.80;;;;;;5001160;28;20192;-64
2022/01/20 07:14:01;;;;;;;12.43;4.00;;;1.40;99.60;;;;;;5001012;28;20189;-58
2022/01/20 07:16:28;;;;;;;11.37;3.57;;;1.50;99.40;;;;;;4998637;28;20250;-54
2022/01/20 07:18:54;;;;;;;10.73;3.90;;;1.60;99.20;;;;;;4999914;28;20699;-55
2022/01/20 07:21:20;;;;;;;8.93;4.03;;;1.70;98.90;;;;;;4999270;28;20645;-61
2022/01/20 07:23:46;;;;;;;13.10;4.00;;;1.80;98.90;;;;;;4998869;28;20186;-56
2022/01/20 07:26:12;;;;;;;13.63;4.00;;;1.80;99.10;;;;;;4999278;28;20228;-64
2022/01/20 07:28:38;;;;;;;12.40;3.93;;;1.80;98.70;;;;;;4998447;28;20268;-66
2022/01/20 07:31:04;;;;;;;11.47;3.50;;;1.90;98.40;;;;;;4999316;28;20525;-67
2022/01/20 07:33:29;;;;;;;9.03;3.73;;;2.00;98.50;;;;;;4999242;28;20693;-59
2022/01/20 07:35:55;;;;;;;11.90;3.03;;;2.00;98.50;;;;;;4998727;28;20321;-59
2022/01/20 07:38:21;;;;;;;9.90;4.00;;;2.10;98.20;;;;;;4997881;28;20278;-58
2022/01/20 07:40:47;;;;;;;15.47;3.83;;;2.20;98.20;;;;;;4983101;28;20180;-55
2022/01/20 07:43:13;;;;;;;11.77;3.47;;;2.30;98.10;;;;;;4987954;28;20184;-60
2022/01/20 07:45:39;;;;;;;10.10;3.80;;;2.40;97.80;;;;;;4987891;28;20200;-61
2022/01/20 07:48:05;;;;;;;11.07;4.07;;;2.40;97.60;;;;;;4989134;28;20275;-68
2022/01/20 07:50:31;;;;;;;13.13;4.47;;;2.50;97.40;;;;;;4991333;28;20191;-61
2022/01/20 07:52:56;;;;;;;14.17;5.53;;;2.60;97.50;;;;;;4970652;28;20692;-57
2022/01/20 07:55:22;;;;;;;15.53;4.77;;;2.70;97.20;;;;;;4968416;28;20541;-56
2022/01/20 07:57:48;;;;;;;13.17;4.90;;;2.80;96.40;;;;;;4977021;28;20250;-56
2022/01/20 08:00:15;;;;;;;14.30;4.80;;;2.90;96.10;;;;;;4968971;28;20746;-55
2022/01/20 08:02:40;;;;;;;15.37;5.60;;;3.00;95.60;;;;;;4977741;28;20195;-58
2022/01/20 08:05:07;;;;;;;13.90;3.73;;;3.10;95.40;;;;;;4954079;28;20188;-60
2022/01/20 08:07:32;;;;;;;11.50;4.37;;;3.20;94.70;;;;;;4972834;28;20283;-56
2022/01/20 08:09:59;;;;;;;9.63;3.20;;;3.30;94.20;;;;;;4978949;28;20275;-55
2022/01/20 08:12:25;;;;;;;14.50;4.53;;;3.50;93.90;;;;;;4982002;28;20625;-56
2022/01/20 08:14:52;;;;;;;11.15;4.32;;;3.50;93.50;;;;;;4964837;28;20425;-58
2022/01/20 08:17:17;;;;;;;22.87;4.70;;;3.60;93.20;;;;;;4985980;28;20195;-57
2022/01/20 08:19:44;;;;;;;11.60;3.83;;;3.60;93.00;;;;;;4986128;28;20602;-60
2022/01/20 08:22:10;;;;;;;8.13;4.03;;;3.60;93.50;;;;;;4983473;28;20213;-60
2022/01/20 08:24:36;;;;;;;19.70;5.83;;;3.60;93.50;;;;;;4986759;28;20192;-58
2022/01/20 08:27:01;;;;;;;10.57;3.57;;;4.00;93.40;;;;;;4994753;28;20195;-60
2022/01/20 08:29:27;;;;;;;12.87;4.10;;;4.80;92.60;;;;;;4994502;28;20185;-58
2022/01/20 08:31:53;;;;;;;11.73;4.17;;;4.90;91.80;;;;;;4993417;28;20198;-58
2022/01/20 08:34:19;;;;;;;15.40;4.37;;;4.70;91.70;;;;;;4994687;28;20289;-58
2022/01/20 08:36:44;;;;;;;20.40;5.20;;;4.50;90.90;;;;;;4976723;28;20624;-57
2022/01/20 08:41:58;;;;;;;16.63;6.10;;;4.20;90.30;;;;;;4994621;28;20191;-59
2022/01/20 08:44:24;;;;;;;11.23;4.90;;;4.30;90.20;;;;;;4994306;28;20184;-58
2022/01/20 08:46:52;;;;;;;12.83;4.10;;;4.80;88.60;;;;;;4994221;28;20236;-56
2022/01/20 08:49:19;;;;;;;12.70;3.90;;;4.90;85.30;;;;;;4994579;28;20636;-57
2022/01/20 08:51:45;;;;;;;11.43;3.90;;;4.70;84.40;;;;;;4993703;28;20283;-57
2022/01/20 08:54:12;;;;;;;6.50;3.27;;;4.50;84.50;;;;;;4991305;28;20236;-63
2022/01/20 08:56:38;;;;;;;6.73;3.23;;;4.40;83.10;;;;;;4992393;28;20679;-63
2022/01/20 08:59:09;;;;;;;8.40;2.90;;;4.40;82.60;;;;;;4993324;28;20299;-58
2022/01/20 09:01:36;;;;;;;9.27;2.67;;;4.30;82.20;;;;;;4993485;28;20183;-60
2022/01/20 09:04:02;;;;;;;14.20;3.13;;;4.30;81.40;;;;;;4993427;28;20272;-61
2022/01/20 09:06:28;;;;;;;16.67;3.60;;;4.20;81.10;;;;;;4994128;28;20196;-60
2022/01/20 09:08:54;;;;;;;14.40;3.47;;;4.20;81.60;;;;;;4992943;28;20223;-59
2022/01/20 09:11:23;;;;;;;9.77;3.10;;;4.30;81.50;;;;;;4994195;28;20215;-59
2022/01/20 09:16:40;;;;;;;7.07;3.30;;;4.30;80.90;;;;;;4957518;28;20663;-57
2022/01/20 09:19:06;;;;;;;8.97;3.23;;;4.30;80.70;;;;;;4993390;28;20623;-58
2022/01/20 09:21:32;;;;;;;8.00;3.40;;;4.30;80.80;;;;;;4959899;28;20196;-59
2022/01/20 09:23:58;;;;;;;10.17;2.70;;;4.40;80.40;;;;;;4976013;28;20271;-60
2022/01/20 09:26:24;;;;;;;5.13;2.60;;;4.30;79.70;;;;;;4993743;28;20172;-59
2022/01/20 09:28:50;;;;;;;12.47;3.70;;;4.40;79.50;;;;;;4993711;28;20184;-58
2022/01/20 09:31:21;;;;;;;8.17;3.30;;;4.40;79.30;;;;;;4993228;28;20182;-56
2022/01/20 09:33:47;;;;;;;9.37;3.23;;;4.30;79.50;;;;;;4976149;28;20259;-58
2022/01/20 09:36:13;;;;;;;10.63;3.57;;;4.40;79.00;;;;;;4993765;28;20278;-62
2022/01/20 09:38:39;;;;;;;18.07;4.30;;;4.40;79.10;;;;;;4959971;28;20225;-58
2022/01/20 09:41:06;;;;;;;9.17;3.00;;;4.40;79.30;;;;;;4993464;28;20176;-59
2022/01/20 09:43:33;;;;;;;7.37;3.03;;;4.40;79.00;;;;;;4993710;28;20183;-57
2022/01/20 09:45:59;;;;;;;10.33;3.10;;;4.40;78.90;;;;;;4994018;28;20609;-56
2022/01/20 09:48:26;;;;;;;13.83;5.37;;;4.50;79.00;;;;;;4992515;28;20306;-57
2022/01/20 09:50:52;;;;;;;5.87;2.90;;;4.60;79.30;;;;;;4993209;28;20188;-59
2022/01/20 09:53:19;;;;;;;6.87;3.87;;;4.70;79.00;;;;;;4974955;28;20300;-60
2022/01/20 09:55:45;;;;;;;10.27;3.50;;;4.70;78.20;;;;;;4959351;28;20193;-59
2022/01/20 09:58:12;;;;;;;6.47;3.20;;;4.70;78.10;;;;;;4993487;28;20221;-55
2022/01/20 10:00:40;;;;;;;15.33;3.93;;;4.60;78.10;;;;;;4992822;28;20637;-54
2022/01/20 10:03:10;;;;;;;10.00;3.90;;;4.70;78.30;;;;;;4992899;28;20215;-57
2022/01/20 10:05:41;;;;;;;9.90;2.63;;;4.70;78.70;;;;;;4993193;28;20556;-58
2022/01/20 10:08:17;;;;;;;12.63;3.23;;;4.70;78.70;;;;;;4992771;28;20181;-56
2022/01/20 10:10:48;;;;;;;5.73;2.90;;;4.80;79.10;;;;;;4993244;28;20625;-58
2022/01/20 10:13:16;;;;;;;14.70;3.00;;;4.90;79.00;;;;;;4992950;28;20232;-70
2022/01/20 10:15:42;;;;;;;9.47;3.80;;;4.90;79.10;;;;;;4993104;28;20185;-58
2022/01/20 10:18:14;;;;;;;8.67;3.00;;;4.90;79.80;;;;;;4992973;28;20185;-57
2022/01/20 10:20:54;;;;;;;8.90;3.80;;;5.00;79.20;;;;;;4992794;28;20208;-58
2022/01/20 10:23:39;;;;;;;14.30;3.27;;;5.00;79.40;;;;;;4993148;28;20257;-61
2022/01/20 10:26:07;;;;;;;9.73;2.93;;;5.00;79.30;;;;;;4993051;28;20244;-61
2022/01/20 10:29:03;;;;;;;14.73;3.47;;;5.00;79.00;;;;;;4975665;28;20184;-56
2022/01/20 10:31:51;;;;;;;11.20;3.17;;;5.00;79.10;;;;;;4990504;28;20205;-59
2022/01/20 10:34:30;;;;;;;8.23;3.70;;;5.10;79.30;;;;;;4992278;28;20185;-58
2022/01/20 10:37:05;;;;;;;13.63;3.70;;;5.10;79.40;;;;;;4991618;28;20202;-59
2022/01/20 10:39:35;;;;;;;11.23;2.97;;;5.10;78.90;;;;;;4990368;28;20228;-69
2022/01/20 10:42:05;;;;;;;9.23;3.40;;;5.20;79.10;;;;;;4972345;28;20197;-59
2022/01/20 10:44:47;;;;;;;10.43;3.30;;;5.20;79.00;;;;;;4972266;28;20204;-60
2022/01/20 10:47:18;;;;;;;8.97;3.30;;;5.30;79.60;;;;;;4971845;28;20196;-59
2022/01/20 10:49:45;;;;;;;14.87;3.40;;;5.30;79.50;;;;;;4972166;28;20192;-56
2022/01/20 10:52:14;;;;;;;7.77;3.40;;;5.20;79.70;;;;;;4955204;28;20228;-58
2022/01/20 10:54:49;;;;;;;10.10;3.77;;;5.30;80.00;;;;;;4972117;28;20233;-59
2022/01/20 10:57:16;;;;;;;12.13;3.70;;;5.30;80.10;;;;;;4991720;28;20173;-58
2022/01/20 10:59:49;;;;;;;8.13;3.23;;;5.30;80.00;;;;;;4991645;28;20204;-58
2022/01/20 11:02:19;;;;;;;7.67;3.67;;;5.30;80.10;;;;;;4991641;28;20504;-59
2022/01/20 11:04:45;;;;;;;11.30;3.37;;;5.40;80.10;;;;;;4991729;28;20179;-60
2022/01/20 11:07:10;;;;;;;15.80;3.70;;;5.40;79.90;;;;;;4992270;28;20281;-57
2022/01/20 11:09:50;;;;;;;11.87;3.30;;;5.30;80.10;;;;;;4991475;28;20632;-58
2022/01/20 11:12:17;;;;;;;14.47;3.77;;;5.30;80.00;;;;;;4992018;28;20304;-70
2022/01/20 11:14:46;;;;;;;10.47;3.50;;;5.30;80.00;;;;;;5005205;28;20185;-59
2022/01/20 11:17:23;;;;;;;12.80;4.13;;;5.40;80.10;;;;;;4993521;28;20189;-61
2022/01/20 11:19:50;;;;;;;5.73;2.80;;;5.50;80.20;;;;;;5011075;28;20598;-59
2022/01/20 11:22:17;;;;;;;11.73;3.30;;;5.50;79.40;;;;;;4993737;28;20649;-56
2022/01/20 11:24:43;;;;;;;9.50;2.90;;;5.50;79.30;;;;;;4992845;28;20240;-62
2022/01/20 11:27:14;;;;;;;12.07;2.93;;;5.50;79.30;;;;;;4993267;28;20742;-66
2022/01/20 11:29:50;;;;;;;12.80;3.30;;;5.60;79.60;;;;;;5010983;28;20190;-59
2022/01/20 11:32:25;;;;;;;19.73;4.03;;;5.60;79.80;;;;;;5011450;28;20294;-56
2022/01/20 11:35:05;;;;;;;9.27;3.70;;;5.60;80.00;;;;;;5010793;28;20591;-60
2022/01/20 11:37:35;;;;;;;8.90;3.20;;;5.70;79.80;;;;;;4993156;28;20192;-58
2022/01/20 11:40:12;;;;;;;7.10;3.40;;;5.80;80.00;;;;;;5010816;28;20221;-60
2022/01/20 11:42:38;;;;;;;11.40;3.67;;;5.90;80.40;;;;;;5011095;28;20181;-59
2022/01/20 11:45:24;;;;;;;12.40;3.70;;;5.90;80.20;;;;;;4976727;28;20187;-59
2022/01/20 11:47:50;;;;;;;11.13;3.20;;;5.90;80.50;;;;;;5011028;28;20535;-58
2022/01/20 11:50:17;;;;;;;6.60;3.13;;;5.90;80.90;;;;;;5010515;28;20201;-59
2022/01/20 11:52:42;;;;;;;9.13;4.17;;;6.10;80.80;;;;;;5010204;28;20651;-64
2022/01/20 11:55:12;;;;;;;8.23;3.03;;;6.20;80.50;;;;;;4993562;28;20564;-59
2022/01/20 11:57:37;;;;;;;17.77;5.57;;;6.10;80.80;;;;;;4992479;28;20701;-62
2022/01/20 12:00:22;;;;;;;19.43;4.27;;;6.00;81.80;;;;;;5011078;28;20359;-62
2022/01/20 12:02:50;;;;;;;9.37;3.97;;;5.70;82.40;;;;;;5010596;28;20165;-60
2022/01/20 12:05:26;;;;;;;9.97;3.70;;;5.50;83.20;;;;;;5011072;28;20265;-57
2022/01/20 12:08:04;;;;;;;11.60;3.63;;;5.30;84.00;;;;;;4993419;28;20589;-58
2022/01/20 12:10:30;;;;;;;9.20;3.87;;;5.20;85.30;;;;;;5010472;28;20219;-59
2022/01/20 12:13:12;;;;;;;12.07;4.37;;;5.10;86.10;;;;;;5010602;28;20663;-60
2022/01/20 12:15:52;;;;;;;12.47;4.83;;;5.00;86.70;;;;;;4963405;28;20195;-61
2022/01/20 12:18:18;;;;;;;12.27;4.43;;;4.90;86.60;;;;;;4972327;28;20261;-60
2022/01/20 12:20:44;;;;;;;13.73;4.30;;;4.80;86.80;;;;;;4970953;28;20610;-65
2022/01/20 12:23:10;;;;;;;11.23;4.30;;;4.80;86.80;;;;;;4954184;28;20194;-59
2022/01/20 12:25:36;;;;;;;14.80;5.33;;;4.70;86.90;;;;;;4971371;28;20187;-60
2022/01/20 12:28:09;;;;;;;9.07;3.73;;;4.70;86.90;;;;;;4972002;28;20189;-57
2022/01/20 12:30:37;;;;;;;13.90;5.47;;;4.70;87.00;;;;;;4967660;28;20195;-60
2022/01/20 12:33:11;;;;;;;11.43;4.63;;;4.60;87.00;;;;;;4971516;28;20190;-60
2022/01/20 12:35:41;;;;;;;20.93;4.77;;;4.70;87.00;;;;;;4954395;28;20233;-60
2022/01/20 12:38:17;;;;;;;15.77;6.20;;;4.60;87.10;;;;;;4954169;28;20259;-60
2022/01/20 12:40:46;;;;;;;10.90;5.40;;;4.70;88.00;;;;;;4971611;28;20653;-58
2022/01/20 12:43:12;;;;;;;15.23;5.47;;;4.70;87.60;;;;;;4972295;28;20193;-61
2022/01/20 12:45:55;;;;;;;25.07;9.77;;;4.60;88.10;;;;;;4971226;28;20193;-60
2022/01/20 12:48:21;;;;;;;13.10;5.70;;;4.50;88.10;;;;;;4971579;28;20185;-73
2022/01/20 12:51:00;;;;;;;27.43;6.03;;;4.40;88.00;;;;;;4971665;28;20192;-59
2022/01/20 12:53:41;;;;;;;22.03;5.43;;;4.30;87.60;;;;;;4970918;28;20255;-62
2022/01/20 12:56:12;;;;;;;20.67;5.50;;;4.10;87.40;;;;;;4971630;28;20534;-57
2022/01/20 12:58:52;;;;;;;13.83;3.80;;;4.00;87.40;;;;;;4971877;28;20602;-58
2022/01/20 13:01:18;;;;;;;23.07;5.07;;;4.00;87.80;;;;;;4974926;28;20216;-60
2022/01/20 13:03:45;;;;;;;9.10;3.80;;;4.00;87.60;;;;;;4975032;28;20193;-59
2022/01/20 13:06:22;;;;;;;13.27;4.67;;;4.00;87.40;;;;;;4957835;28;20217;-58
2022/01/20 13:09:00;;;;;;;15.23;4.17;;;4.00;87.70;;;;;;4975034;28;20189;-60
2022/01/20 13:11:54;;;;;;;13.00;4.47;;;4.00;87.90;;;;;;4974680;28;20649;-62
2022/01/20 13:14:31;;;;;;;10.63;4.33;;;3.90;88.00;;;;;;4968043;28;20184;-60
2022/01/20 13:16:58;;;;;;;11.63;4.43;;;3.90;88.30;;;;;;4994606;28;20226;-59
2022/01/20 13:19:45;;;;;;;11.00;3.73;;;3.90;88.20;;;;;;4994086;28;20366;-76
2022/01/20 13:22:40;;;;;;;11.30;4.27;;;4.00;88.40;;;;;;4976311;28;20192;-62
2022/01/20 13:25:10;;;;;;;12.70;4.60;;;3.90;88.10;;;;;;4994407;28;20224;-63
2022/01/20 13:27:37;;;;;;;12.80;4.53;;;3.90;88.90;;;;;;4993695;28;20555;-61
2022/01/20 13:30:05;;;;;;;11.90;4.50;;;3.90;87.90;;;;;;4994126;28;20192;-61
2022/01/20 13:32:31;;;;;;;12.83;4.90;;;4.00;88.20;;;;;;4993442;28;20199;-59
2022/01/20 13:35:00;;;;;;;23.83;5.77;;;4.00;88.20;;;;;;4993993;28;20188;-60
2022/01/20 13:37:27;;;;;;;25.23;7.03;;;4.10;88.30;;;;;;4993337;28;20402;-56
2022/01/20 13:39:56;;;;;;;20.47;7.30;;;4.10;88.30;;;;;;4976296;28;20520;-60
2022/01/20 13:45:13;;;;;;;18.13;7.33;;;4.00;88.30;;;;;;4993103;28;20199;-60
2022/01/20 13:47:59;;;;;;;24.30;6.83;;;4.00;88.50;;;;;;4993004;28;20228;-60
2022/01/20 13:50:37;;;;;;;14.63;5.70;;;4.00;88.50;;;;;;4993323;28;20272;-70
2022/01/20 13:53:21;;;;;;;16.77;6.03;;;4.10;88.10;;;;;;4996285;28;20603;-61
2022/01/20 13:55:48;;;;;;;14.50;6.13;;;4.30;88.30;;;;;;5010678;28;20268;-62
2022/01/20 13:58:29;;;;;;;14.00;5.17;;;4.40;87.20;;;;;;4993206;28;20253;-61
2022/01/20 14:00:56;;;;;;;19.43;5.43;;;4.40;87.20;;;;;;4992788;28;20205;-63
2022/01/20 14:03:23;;;;;;;10.70;4.40;;;4.60;87.80;;;;;;4990551;28;20291;-70